Terminal Aerodrome Forecast
Issued by NWS

Home | Current Version | Previous Version | Text Only | Print | Product List | Glossary On
Versions: 1 2 3 4 5 6 7 8 9 10 11 12 13
797
FTUS44 KTSA 271120
TAFMLC
TAF
KMLC 271120Z 2712/2812 19009KT P6SM BKN250
     FM271500 21012G18KT P6SM SCT050 BKN250
     FM280100 20007KT P6SM BKN100
     FM280600 33003KT P6SM OVC100 PROB30 2806/2812 5SM -TSRA
      BKN060CB=

USA.gov is the U.S. government's official web portal to all federal, state and local government web resources and services.